sensor_id;sensor_type;location;lat;lon;timestamp;P1;durP1;ratioP1;P2;durP2;ratioP2
74217;SDS011;62579;47.288;18.646;2022-07-29T00:02:17;5.10;;;1.97;;
74217;SDS011;62579;47.288;18.646;2022-07-29T00:04:42;2.10;;;1.90;;
74217;SDS011;62579;47.288;18.646;2022-07-29T00:07:08;2.40;;;2.17;;
74217;SDS011;62579;47.288;18.646;2022-07-29T00:09:33;2.50;;;2.10;;
74217;SDS011;62579;47.288;18.646;2022-07-29T00:11:59;2.90;;;1.80;;
74217;SDS011;62579;47.288;18.646;2022-07-29T00:14:26;2.22;;;2.03;;
74217;SDS011;62579;47.288;18.646;2022-07-29T00:16:51;1.93;;;1.83;;
74217;SDS011;62579;47.288;18.646;2022-07-29T00:19:17;1.87;;;1.77;;
74217;SDS011;62579;47.288;18.646;2022-07-29T00:21:42;2.40;;;2.20;;
74217;SDS011;62579;47.288;18.646;2022-07-29T00:24:08;2.20;;;2.07;;
74217;SDS011;62579;47.288;18.646;2022-07-29T00:26:33;2.10;;;2.00;;
74217;SDS011;62579;47.288;18.646;2022-07-29T00:28:59;2.13;;;1.93;;
74217;SDS011;62579;47.288;18.646;2022-07-29T00:34:11;2.10;;;2.00;;
74217;SDS011;62579;47.288;18.646;2022-07-29T00:36:55;3.10;;;2.03;;
74217;SDS011;62579;47.288;18.646;2022-07-29T00:39:21;2.30;;;2.20;;
74217;SDS011;62579;47.288;18.646;2022-07-29T00:41:46;2.00;;;1.90;;
74217;SDS011;62579;47.288;18.646;2022-07-29T00:44:12;2.50;;;2.30;;
74217;SDS011;62579;47.288;18.646;2022-07-29T00:49:08;2.20;;;1.87;;
74217;SDS011;62579;47.288;18.646;2022-07-29T00:51:35;2.33;;;2.23;;
74217;SDS011;62579;47.288;18.646;2022-07-29T00:54:02;2.37;;;2.20;;
74217;SDS011;62579;47.288;18.646;2022-07-29T00:56:29;2.85;;;2.20;;
74217;SDS011;62579;47.288;18.646;2022-07-29T00:58:56;2.78;;;2.37;;
74217;SDS011;62579;47.288;18.646;2022-07-29T01:01:23;8.43;;;2.40;;
74217;SDS011;62579;47.288;18.646;2022-07-29T01:03:48;3.07;;;2.37;;
74217;SDS011;62579;47.288;18.646;2022-07-29T01:06:14;2.40;;;2.13;;
74217;SDS011;62579;47.288;18.646;2022-07-29T01:08:41;2.30;;;2.10;;
74217;SDS011;62579;47.288;18.646;2022-07-29T01:11:07;3.20;;;2.28;;
74217;SDS011;62579;47.288;18.646;2022-07-29T01:13:33;2.83;;;2.17;;
74217;SDS011;62579;47.288;18.646;2022-07-29T01:16:02;2.30;;;2.20;;
74217;SDS011;62579;47.288;18.646;2022-07-29T01:18:34;2.20;;;2.03;;
74217;SDS011;62579;47.288;18.646;2022-07-29T01:24:34;2.97;;;2.60;;
74217;SDS011;62579;47.288;18.646;2022-07-29T01:30:04;2.78;;;2.15;;
74217;SDS011;62579;47.288;18.646;2022-07-29T01:32:31;2.25;;;1.90;;
74217;SDS011;62579;47.288;18.646;2022-07-29T01:35:04;2.53;;;2.33;;
74217;SDS011;62579;47.288;18.646;2022-07-29T01:40:34;2.60;;;2.40;;
74217;SDS011;62579;47.288;18.646;2022-07-29T01:43:07;2.30;;;2.10;;
74217;SDS011;62579;47.288;18.646;2022-07-29T01:51:05;2.25;;;2.10;;
74217;SDS011;62579;47.288;18.646;2022-07-29T01:53:46;3.03;;;2.67;;
74217;SDS011;62579;47.288;18.646;2022-07-29T01:56:16;3.75;;;2.40;;
74217;SDS011;62579;47.288;18.646;2022-07-29T01:58:44;2.75;;;2.50;;
74217;SDS011;62579;47.288;18.646;2022-07-29T02:01:13;2.85;;;2.40;;
74217;SDS011;62579;47.288;18.646;2022-07-29T02:03:41;2.42;;;2.03;;
74217;SDS011;62579;47.288;18.646;2022-07-29T02:06:09;3.87;;;2.60;;
74217;SDS011;62579;47.288;18.646;2022-07-29T02:08:37;2.85;;;2.58;;
74217;SDS011;62579;47.288;18.646;2022-07-29T02:11:04;5.07;;;2.78;;
74217;SDS011;62579;47.288;18.646;2022-07-29T02:13:31;2.58;;;2.37;;
74217;SDS011;62579;47.288;18.646;2022-07-29T02:16:00;2.78;;;2.40;;
74217;SDS011;62579;47.288;18.646;2022-07-29T02:18:29;3.50;;;2.80;;
74217;SDS011;62579;47.288;18.646;2022-07-29T02:20:55;4.25;;;2.50;;
74217;SDS011;62579;47.288;18.646;2022-07-29T02:23:23;3.40;;;2.40;;
74217;SDS011;62579;47.288;18.646;2022-07-29T02:25:50;5.25;;;2.75;;
74217;SDS011;62579;47.288;18.646;2022-07-29T02:28:18;3.05;;;2.72;;
74217;SDS011;62579;47.288;18.646;2022-07-29T02:30:44;4.68;;;2.60;;
74217;SDS011;62579;47.288;18.646;2022-07-29T02:33:12;4.03;;;2.65;;
74217;SDS011;62579;47.288;18.646;2022-07-29T02:35:39;5.70;;;2.67;;
74217;SDS011;62579;47.288;18.646;2022-07-29T02:38:06;4.30;;;2.72;;
74217;SDS011;62579;47.288;18.646;2022-07-29T02:40:53;2.58;;;2.37;;
74217;SDS011;62579;47.288;18.646;2022-07-29T02:43:20;2.92;;;2.55;;
74217;SDS011;62579;47.288;18.646;2022-07-29T02:45:47;5.30;;;2.80;;
74217;SDS011;62579;47.288;18.646;2022-07-29T02:48:18;2.80;;;2.60;;
74217;SDS011;62579;47.288;18.646;2022-07-29T02:50:49;3.28;;;2.58;;
74217;SDS011;62579;47.288;18.646;2022-07-29T02:53:22;3.65;;;2.78;;
74217;SDS011;62579;47.288;18.646;2022-07-29T02:55:57;3.40;;;2.70;;
74217;SDS011;62579;47.288;18.646;2022-07-29T03:01:14;2.97;;;2.67;;
74217;SDS011;62579;47.288;18.646;2022-07-29T03:03:51;5.15;;;3.00;;
74217;SDS011;62579;47.288;18.646;2022-07-29T03:06:19;3.85;;;3.03;;
74217;SDS011;62579;47.288;18.646;2022-07-29T03:11:33;3.67;;;2.85;;
74217;SDS011;62579;47.288;18.646;2022-07-29T03:16:25;2.67;;;2.47;;
74217;SDS011;62579;47.288;18.646;2022-07-29T03:18:51;2.67;;;2.47;;
74217;SDS011;62579;47.288;18.646;2022-07-29T03:21:17;3.03;;;2.77;;
74217;SDS011;62579;47.288;18.646;2022-07-29T03:23:46;2.90;;;2.60;;
74217;SDS011;62579;47.288;18.646;2022-07-29T03:26:11;2.97;;;2.50;;
74217;SDS011;62579;47.288;18.646;2022-07-29T03:28:38;2.75;;;2.50;;
74217;SDS011;62579;47.288;18.646;2022-07-29T03:31:03;2.50;;;2.30;;
74217;SDS011;62579;47.288;18.646;2022-07-29T03:33:28;3.03;;;2.80;;
74217;SDS011;62579;47.288;18.646;2022-07-29T03:35:55;3.00;;;2.78;;
74217;SDS011;62579;47.288;18.646;2022-07-29T03:38:20;3.03;;;2.70;;
74217;SDS011;62579;47.288;18.646;2022-07-29T03:40:51;2.60;;;2.40;;
74217;SDS011;62579;47.288;18.646;2022-07-29T03:43:19;4.32;;;2.60;;
74217;SDS011;62579;47.288;18.646;2022-07-29T03:45:47;4.47;;;2.72;;
74217;SDS011;62579;47.288;18.646;2022-07-29T03:48:15;3.70;;;2.80;;
74217;SDS011;62579;47.288;18.646;2022-07-29T03:50:44;2.85;;;2.65;;
74217;SDS011;62579;47.288;18.646;2022-07-29T03:53:10;3.87;;;2.72;;
74217;SDS011;62579;47.288;18.646;2022-07-29T03:55:37;3.20;;;2.90;;
74217;SDS011;62579;47.288;18.646;2022-07-29T03:58:06;3.05;;;2.75;;
74217;SDS011;62579;47.288;18.646;2022-07-29T04:00:33;3.83;;;2.62;;
74217;SDS011;62579;47.288;18.646;2022-07-29T04:03:00;4.60;;;2.67;;
74217;SDS011;62579;47.288;18.646;2022-07-29T04:05:26;3.15;;;2.90;;
74217;SDS011;62579;47.288;18.646;2022-07-29T04:07:51;2.53;;;2.33;;
74217;SDS011;62579;47.288;18.646;2022-07-29T04:10:17;4.07;;;3.20;;
74217;SDS011;62579;47.288;18.646;2022-07-29T04:12:43;3.45;;;2.30;;
74217;SDS011;62579;47.288;18.646;2022-07-29T04:15:09;4.73;;;2.50;;
74217;SDS011;62579;47.288;18.646;2022-07-29T04:17:35;2.87;;;2.67;;
74217;SDS011;62579;47.288;18.646;2022-07-29T04:20:00;2.70;;;2.50;;
74217;SDS011;62579;47.288;18.646;2022-07-29T04:22:25;4.50;;;2.90;;
74217;SDS011;62579;47.288;18.646;2022-07-29T04:24:51;2.90;;;2.60;;
74217;SDS011;62579;47.288;18.646;2022-07-29T04:27:16;3.37;;;3.10;;
74217;SDS011;62579;47.288;18.646;2022-07-29T04:29:41;4.50;;;3.07;;
74217;SDS011;62579;47.288;18.646;2022-07-29T04:32:07;2.80;;;2.60;;
74217;SDS011;62579;47.288;18.646;2022-07-29T04:34:32;4.13;;;3.20;;
74217;SDS011;62579;47.288;18.646;2022-07-29T04:36:57;3.67;;;3.30;;
74217;SDS011;62579;47.288;18.646;2022-07-29T04:39:23;4.00;;;2.87;;
74217;SDS011;62579;47.288;18.646;2022-07-29T04:41:49;3.87;;;2.63;;
74217;SDS011;62579;47.288;18.646;2022-07-29T04:44:15;2.78;;;2.53;;
74217;SDS011;62579;47.288;18.646;2022-07-29T04:46:40;3.00;;;2.70;;
74217;SDS011;62579;47.288;18.646;2022-07-29T04:49:05;3.20;;;2.90;;
74217;SDS011;62579;47.288;18.646;2022-07-29T04:51:31;3.37;;;3.00;;
74217;SDS011;62579;47.288;18.646;2022-07-29T04:53:56;3.17;;;2.60;;
74217;SDS011;62579;47.288;18.646;2022-07-29T04:56:21;5.07;;;3.17;;
74217;SDS011;62579;47.288;18.646;2022-07-29T04:58:47;4.33;;;3.10;;
74217;SDS011;62579;47.288;18.646;2022-07-29T05:01:12;6.43;;;2.73;;
74217;SDS011;62579;47.288;18.646;2022-07-29T05:03:39;3.55;;;2.85;;
74217;SDS011;62579;47.288;18.646;2022-07-29T05:06:04;3.20;;;2.80;;
74217;SDS011;62579;47.288;18.646;2022-07-29T05:08:29;3.03;;;2.83;;
74217;SDS011;62579;47.288;18.646;2022-07-29T05:10:55;2.87;;;2.67;;
74217;SDS011;62579;47.288;18.646;2022-07-29T05:13:20;2.77;;;2.57;;
74217;SDS011;62579;47.288;18.646;2022-07-29T05:15:45;2.93;;;2.73;;
74217;SDS011;62579;47.288;18.646;2022-07-29T05:18:11;3.10;;;2.90;;
74217;SDS011;62579;47.288;18.646;2022-07-29T05:20:36;4.03;;;2.73;;
74217;SDS011;62579;47.288;18.646;2022-07-29T05:23:02;3.43;;;3.10;;
74217;SDS011;62579;47.288;18.646;2022-07-29T05:25:28;4.75;;;2.97;;
74217;SDS011;62579;47.288;18.646;2022-07-29T05:27:54;3.40;;;2.92;;
74217;SDS011;62579;47.288;18.646;2022-07-29T05:30:20;3.20;;;2.90;;
74217;SDS011;62579;47.288;18.646;2022-07-29T05:32:46;3.37;;;3.08;;
74217;SDS011;62579;47.288;18.646;2022-07-29T05:35:11;3.93;;;2.87;;
74217;SDS011;62579;47.288;18.646;2022-07-29T05:37:38;6.50;;;3.00;;
74217;SDS011;62579;47.288;18.646;2022-07-29T05:40:03;3.17;;;2.90;;
74217;SDS011;62579;47.288;18.646;2022-07-29T05:42:30;3.40;;;3.10;;
74217;SDS011;62579;47.288;18.646;2022-07-29T05:44:55;4.87;;;3.30;;
74217;SDS011;62579;47.288;18.646;2022-07-29T05:47:21;3.53;;;2.70;;
74217;SDS011;62579;47.288;18.646;2022-07-29T05:49:46;4.50;;;3.20;;
74217;SDS011;62579;47.288;18.646;2022-07-29T05:52:12;5.43;;;2.87;;
74217;SDS011;62579;47.288;18.646;2022-07-29T05:54:38;3.80;;;3.07;;
74217;SDS011;62579;47.288;18.646;2022-07-29T05:57:04;3.27;;;3.00;;
74217;SDS011;62579;47.288;18.646;2022-07-29T05:59:30;3.37;;;3.08;;
74217;SDS011;62579;47.288;18.646;2022-07-29T06:01:56;3.10;;;2.90;;
74217;SDS011;62579;47.288;18.646;2022-07-29T06:04:22;3.07;;;2.87;;
74217;SDS011;62579;47.288;18.646;2022-07-29T06:06:47;6.00;;;3.13;;
74217;SDS011;62579;47.288;18.646;2022-07-29T06:09:12;3.97;;;2.93;;
74217;SDS011;62579;47.288;18.646;2022-07-29T06:11:38;3.25;;;3.00;;
74217;SDS011;62579;47.288;18.646;2022-07-29T06:14:04;6.03;;;3.07;;
74217;SDS011;62579;47.288;18.646;2022-07-29T06:16:29;4.47;;;3.30;;
74217;SDS011;62579;47.288;18.646;2022-07-29T06:18:54;3.77;;;3.13;;
74217;SDS011;62579;47.288;18.646;2022-07-29T06:21:20;3.20;;;2.90;;
74217;SDS011;62579;47.288;18.646;2022-07-29T06:23:45;3.60;;;3.30;;
74217;SDS011;62579;47.288;18.646;2022-07-29T06:26:10;8.07;;;3.67;;
74217;SDS011;62579;47.288;18.646;2022-07-29T06:28:36;7.17;;;3.60;;
74217;SDS011;62579;47.288;18.646;2022-07-29T06:31:01;6.50;;;3.57;;
74217;SDS011;62579;47.288;18.646;2022-07-29T06:33:27;4.20;;;3.80;;
74217;SDS011;62579;47.288;18.646;2022-07-29T06:35:52;3.80;;;3.50;;
74217;SDS011;62579;47.288;18.646;2022-07-29T06:38:18;4.37;;;3.07;;
74217;SDS011;62579;47.288;18.646;2022-07-29T06:40:43;4.80;;;3.47;;
74217;SDS011;62579;47.288;18.646;2022-07-29T06:43:28;3.72;;;3.42;;
74217;SDS011;62579;47.288;18.646;2022-07-29T06:45:58;5.28;;;3.25;;
74217;SDS011;62579;47.288;18.646;2022-07-29T06:48:24;6.00;;;3.90;;
74217;SDS011;62579;47.288;18.646;2022-07-29T06:50:49;5.17;;;3.50;;
74217;SDS011;62579;47.288;18.646;2022-07-29T06:53:15;6.33;;;3.73;;
74217;SDS011;62579;47.288;18.646;2022-07-29T06:55:40;6.23;;;3.27;;
74217;SDS011;62579;47.288;18.646;2022-07-29T06:58:05;6.00;;;4.20;;
74217;SDS011;62579;47.288;18.646;2022-07-29T07:02:57;4.80;;;3.23;;
74217;SDS011;62579;47.288;18.646;2022-07-29T07:05:23;3.77;;;3.47;;
74217;SDS011;62579;47.288;18.646;2022-07-29T07:07:48;4.60;;;3.90;;
74217;SDS011;62579;47.288;18.646;2022-07-29T07:10:13;6.07;;;4.27;;
74217;SDS011;62579;47.288;18.646;2022-07-29T07:12:39;6.00;;;3.50;;
74217;SDS011;62579;47.288;18.646;2022-07-29T07:15:05;5.43;;;3.70;;
74217;SDS011;62579;47.288;18.646;2022-07-29T07:17:31;6.17;;;3.57;;
74217;SDS011;62579;47.288;18.646;2022-07-29T07:19:56;3.67;;;3.30;;
74217;SDS011;62579;47.288;18.646;2022-07-29T07:22:21;5.17;;;3.20;;
74217;SDS011;62579;47.288;18.646;2022-07-29T07:24:46;4.67;;;3.53;;
74217;SDS011;62579;47.288;18.646;2022-07-29T07:27:12;3.70;;;3.37;;
74217;SDS011;62579;47.288;18.646;2022-07-29T07:29:37;5.43;;;3.30;;
74217;SDS011;62579;47.288;18.646;2022-07-29T07:32:05;7.80;;;3.72;;
74217;SDS011;62579;47.288;18.646;2022-07-29T07:34:31;4.43;;;3.90;;
74217;SDS011;62579;47.288;18.646;2022-07-29T07:36:57;7.77;;;3.50;;
74217;SDS011;62579;47.288;18.646;2022-07-29T07:39:22;6.30;;;3.70;;
74217;SDS011;62579;47.288;18.646;2022-07-29T07:41:47;6.07;;;3.80;;
74217;SDS011;62579;47.288;18.646;2022-07-29T07:44:13;4.47;;;3.00;;
74217;SDS011;62579;47.288;18.646;2022-07-29T07:46:38;3.37;;;3.07;;
74217;SDS011;62579;47.288;18.646;2022-07-29T07:49:03;3.50;;;3.20;;
74217;SDS011;62579;47.288;18.646;2022-07-29T07:51:28;5.83;;;3.30;;
74217;SDS011;62579;47.288;18.646;2022-07-29T07:53:54;4.53;;;3.37;;
74217;SDS011;62579;47.288;18.646;2022-07-29T07:56:19;4.43;;;3.23;;
74217;SDS011;62579;47.288;18.646;2022-07-29T07:58:45;4.43;;;3.17;;
74217;SDS011;62579;47.288;18.646;2022-07-29T08:01:10;5.60;;;3.60;;
74217;SDS011;62579;47.288;18.646;2022-07-29T08:03:35;3.73;;;3.27;;
74217;SDS011;62579;47.288;18.646;2022-07-29T08:06:02;6.63;;;3.10;;
74217;SDS011;62579;47.288;18.646;2022-07-29T08:08:28;11.00;;;3.47;;
74217;SDS011;62579;47.288;18.646;2022-07-29T08:10:54;3.47;;;3.03;;
74217;SDS011;62579;47.288;18.646;2022-07-29T08:13:25;3.58;;;2.90;;
74217;SDS011;62579;47.288;18.646;2022-07-29T08:15:53;5.53;;;3.03;;
74217;SDS011;62579;47.288;18.646;2022-07-29T08:18:23;3.75;;;3.12;;
74217;SDS011;62579;47.288;18.646;2022-07-29T08:20:49;2.92;;;2.62;;
74217;SDS011;62579;47.288;18.646;2022-07-29T08:23:15;3.40;;;3.10;;
74217;SDS011;62579;47.288;18.646;2022-07-29T08:25:41;18.40;;;3.33;;
74217;SDS011;62579;47.288;18.646;2022-07-29T08:28:06;3.60;;;3.30;;
74217;SDS011;62579;47.288;18.646;2022-07-29T08:30:32;3.57;;;3.20;;
74217;SDS011;62579;47.288;18.646;2022-07-29T08:32:58;3.27;;;2.97;;
74217;SDS011;62579;47.288;18.646;2022-07-29T08:35:24;11.87;;;3.40;;
74217;SDS011;62579;47.288;18.646;2022-07-29T08:37:50;3.65;;;3.00;;
74217;SDS011;62579;47.288;18.646;2022-07-29T08:40:16;10.07;;;2.75;;
74217;SDS011;62579;47.288;18.646;2022-07-29T08:42:41;7.40;;;2.93;;
74217;SDS011;62579;47.288;18.646;2022-07-29T08:45:07;4.53;;;3.07;;
74217;SDS011;62579;47.288;18.646;2022-07-29T08:47:33;4.17;;;2.90;;
74217;SDS011;62579;47.288;18.646;2022-07-29T08:49:58;4.50;;;3.00;;
74217;SDS011;62579;47.288;18.646;2022-07-29T08:52:25;3.50;;;3.00;;
74217;SDS011;62579;47.288;18.646;2022-07-29T08:54:52;3.28;;;2.70;;
74217;SDS011;62579;47.288;18.646;2022-07-29T08:57:18;3.28;;;2.70;;
74217;SDS011;62579;47.288;18.646;2022-07-29T08:59:44;5.57;;;2.70;;
74217;SDS011;62579;47.288;18.646;2022-07-29T09:04:43;7.57;;;3.12;;
74217;SDS011;62579;47.288;18.646;2022-07-29T09:07:08;3.33;;;3.03;;
74217;SDS011;62579;47.288;18.646;2022-07-29T09:09:34;3.20;;;2.60;;
74217;SDS011;62579;47.288;18.646;2022-07-29T09:12:00;5.77;;;2.90;;
74217;SDS011;62579;47.288;18.646;2022-07-29T09:14:25;6.00;;;3.20;;
74217;SDS011;62579;47.288;18.646;2022-07-29T09:16:52;5.47;;;3.00;;
74217;SDS011;62579;47.288;18.646;2022-07-29T09:21:55;3.90;;;2.90;;
74217;SDS011;62579;47.288;18.646;2022-07-29T09:27:10;8.43;;;2.90;;
74217;SDS011;62579;47.288;18.646;2022-07-29T09:29:42;6.37;;;3.50;;
74217;SDS011;62579;47.288;18.646;2022-07-29T09:32:09;3.47;;;3.10;;
74217;SDS011;62579;47.288;18.646;2022-07-29T09:34:35;7.43;;;3.58;;
74217;SDS011;62579;47.288;18.646;2022-07-29T09:37:01;7.20;;;2.90;;
74217;SDS011;62579;47.288;18.646;2022-07-29T09:42:02;3.30;;;3.00;;
74217;SDS011;62579;47.288;18.646;2022-07-29T09:44:43;4.47;;;3.00;;
74217;SDS011;62579;47.288;18.646;2022-07-29T09:47:13;4.60;;;2.92;;
74217;SDS011;62579;47.288;18.646;2022-07-29T09:49:55;3.83;;;3.10;;
74217;SDS011;62579;47.288;18.646;2022-07-29T09:52:26;4.80;;;3.03;;
74217;SDS011;62579;47.288;18.646;2022-07-29T09:54:52;5.43;;;3.10;;
74217;SDS011;62579;47.288;18.646;2022-07-29T09:57:23;6.45;;;2.90;;
74217;SDS011;62579;47.288;18.646;2022-07-29T09:59:57;6.12;;;3.25;;
74217;SDS011;62579;47.288;18.646;2022-07-29T10:02:27;3.67;;;2.92;;
74217;SDS011;62579;47.288;18.646;2022-07-29T10:23:15;4.43;;;2.90;;
74217;SDS011;62579;47.288;18.646;2022-07-29T10:25:41;3.50;;;2.90;;
74217;SDS011;62579;47.288;18.646;2022-07-29T10:28:06;4.47;;;2.80;;
74217;SDS011;62579;47.288;18.646;2022-07-29T10:30:32;5.43;;;3.20;;
74217;SDS011;62579;47.288;18.646;2022-07-29T10:41:31;3.42;;;2.67;;
74217;SDS011;62579;47.288;18.646;2022-07-29T10:44:18;3.10;;;2.65;;
74217;SDS011;62579;47.288;18.646;2022-07-29T10:46:45;6.50;;;3.00;;
74217;SDS011;62579;47.288;18.646;2022-07-29T10:49:12;4.60;;;2.30;;
74217;SDS011;62579;47.288;18.646;2022-07-29T10:57:17;9.05;;;2.92;;
74217;SDS011;62579;47.288;18.646;2022-07-29T11:00:36;4.30;;;3.05;;
74217;SDS011;62579;47.288;18.646;2022-07-29T11:05:06;4.40;;;2.53;;
74217;SDS011;62579;47.288;18.646;2022-07-29T11:07:33;4.30;;;2.67;;
74217;SDS011;62579;47.288;18.646;2022-07-29T11:15:03;3.33;;;2.70;;
74217;SDS011;62579;47.288;18.646;2022-07-29T11:17:30;4.35;;;2.70;;
74217;SDS011;62579;47.288;18.646;2022-07-29T11:23:19;4.75;;;2.78;;
74217;SDS011;62579;47.288;18.646;2022-07-29T11:26:12;5.65;;;3.00;;
74217;SDS011;62579;47.288;18.646;2022-07-29T11:28:34;9.23;;;3.70;;
74217;SDS011;62579;47.288;18.646;2022-07-29T11:34:22;14.50;;;3.62;;
74217;SDS011;62579;47.288;18.646;2022-07-29T11:39:31;10.45;;;3.47;;
74217;SDS011;62579;47.288;18.646;2022-07-29T11:44:53;8.68;;;3.55;;
74217;SDS011;62579;47.288;18.646;2022-07-29T11:47:21;9.35;;;3.03;;
74217;SDS011;62579;47.288;18.646;2022-07-29T11:49:47;10.93;;;3.62;;
74217;SDS011;62579;47.288;18.646;2022-07-29T11:52:13;9.17;;;3.57;;
74217;SDS011;62579;47.288;18.646;2022-07-29T11:54:39;5.20;;;3.07;;
74217;SDS011;62579;47.288;18.646;2022-07-29T11:57:07;7.45;;;3.20;;
74217;SDS011;62579;47.288;18.646;2022-07-29T11:59:38;9.20;;;3.20;;
74217;SDS011;62579;47.288;18.646;2022-07-29T12:02:05;4.15;;;2.90;;
74217;SDS011;62579;47.288;18.646;2022-07-29T12:04:30;4.43;;;2.87;;
74217;SDS011;62579;47.288;18.646;2022-07-29T12:06:55;3.67;;;3.20;;
74217;SDS011;62579;47.288;18.646;2022-07-29T12:09:21;3.10;;;2.77;;
74217;SDS011;62579;47.288;18.646;2022-07-29T12:11:47;5.85;;;2.75;;
74217;SDS011;62579;47.288;18.646;2022-07-29T12:14:34;4.90;;;3.10;;
74217;SDS011;62579;47.288;18.646;2022-07-29T12:16:59;7.18;;;3.20;;
74217;SDS011;62579;47.288;18.646;2022-07-29T12:19:28;4.80;;;3.37;;
74217;SDS011;62579;47.288;18.646;2022-07-29T12:21:54;4.78;;;2.95;;
74217;SDS011;62579;47.288;18.646;2022-07-29T13:57:53;55.12;;;10.43;;
74217;SDS011;62579;47.288;18.646;2022-07-29T14:00:18;51.07;;;10.33;;
74217;SDS011;62579;47.288;18.646;2022-07-29T14:02:44;62.90;;;10.80;;
74217;SDS011;62579;47.288;18.646;2022-07-29T14:05:09;37.53;;;10.10;;
74217;SDS011;62579;47.288;18.646;2022-07-29T14:07:35;51.53;;;10.60;;
74217;SDS011;62579;47.288;18.646;2022-07-29T14:10:04;61.47;;;11.10;;
74217;SDS011;62579;47.288;18.646;2022-07-29T14:12:30;60.10;;;10.70;;
74217;SDS011;62579;47.288;18.646;2022-07-29T14:14:55;49.20;;;10.37;;
74217;SDS011;62579;47.288;18.646;2022-07-29T14:17:21;53.50;;;10.47;;
74217;SDS011;62579;47.288;18.646;2022-07-29T14:19:46;50.70;;;10.37;;
74217;SDS011;62579;47.288;18.646;2022-07-29T14:22:12;50.23;;;10.30;;
74217;SDS011;62579;47.288;18.646;2022-07-29T14:24:37;40.37;;;9.60;;
74217;SDS011;62579;47.288;18.646;2022-07-29T14:27:03;51.83;;;9.60;;
74217;SDS011;62579;47.288;18.646;2022-07-29T14:29:29;35.65;;;7.90;;
74217;SDS011;62579;47.288;18.646;2022-07-29T14:31:55;39.60;;;9.53;;
74217;SDS011;62579;47.288;18.646;2022-07-29T14:34:20;28.63;;;7.30;;
74217;SDS011;62579;47.288;18.646;2022-07-29T14:36:45;35.43;;;7.93;;
74217;SDS011;62579;47.288;18.646;2022-07-29T16:03:37;9.27;;;3.92;;
74217;SDS011;62579;47.288;18.646;2022-07-29T16:06:03;4.07;;;3.70;;
74217;SDS011;62579;47.288;18.646;2022-07-29T16:08:28;6.32;;;3.62;;
74217;SDS011;62579;47.288;18.646;2022-07-29T16:10:54;5.93;;;3.70;;
74217;SDS011;62579;47.288;18.646;2022-07-29T16:13:19;6.40;;;3.80;;
74217;SDS011;62579;47.288;18.646;2022-07-29T16:15:44;7.50;;;4.10;;
74217;SDS011;62579;47.288;18.646;2022-07-29T16:18:10;6.53;;;3.70;;
74217;SDS011;62579;47.288;18.646;2022-07-29T16:20:35;7.00;;;4.27;;
74217;SDS011;62579;47.288;18.646;2022-07-29T16:25:39;3.95;;;3.65;;
74217;SDS011;62579;47.288;18.646;2022-07-29T16:28:05;7.07;;;3.80;;
74217;SDS011;62579;47.288;18.646;2022-07-29T16:30:32;19.65;;;8.77;;
74217;SDS011;62579;47.288;18.646;2022-07-29T16:32:58;6.45;;;4.82;;
74217;SDS011;62579;47.288;18.646;2022-07-29T16:35:23;10.10;;;3.63;;
74217;SDS011;62579;47.288;18.646;2022-07-29T16:37:48;9.45;;;4.43;;
74217;SDS011;62579;47.288;18.646;2022-07-29T16:40:14;8.53;;;6.37;;
74217;SDS011;62579;47.288;18.646;2022-07-29T16:42:39;13.48;;;9.43;;
74217;SDS011;62579;47.288;18.646;2022-07-29T16:45:05;9.02;;;5.20;;
74217;SDS011;62579;47.288;18.646;2022-07-29T16:47:31;7.75;;;3.62;;
74217;SDS011;62579;47.288;18.646;2022-07-29T16:49:56;7.93;;;6.30;;
74217;SDS011;62579;47.288;18.646;2022-07-29T16:52:22;17.45;;;9.52;;
74217;SDS011;62579;47.288;18.646;2022-07-29T16:54:47;14.30;;;9.97;;
74217;SDS011;62579;47.288;18.646;2022-07-29T16:57:12;11.10;;;8.10;;
74217;SDS011;62579;47.288;18.646;2022-07-29T16:59:38;9.27;;;6.30;;
74217;SDS011;62579;47.288;18.646;2022-07-29T17:02:03;8.10;;;5.95;;
74217;SDS011;62579;47.288;18.646;2022-07-29T17:04:29;7.10;;;5.23;;
74217;SDS011;62579;47.288;18.646;2022-07-29T17:06:55;5.22;;;4.70;;
74217;SDS011;62579;47.288;18.646;2022-07-29T17:09:21;7.55;;;4.10;;
74217;SDS011;62579;47.288;18.646;2022-07-29T17:11:47;4.43;;;4.03;;
74217;SDS011;62579;47.288;18.646;2022-07-29T17:14:22;10.90;;;4.25;;
74217;SDS011;62579;47.288;18.646;2022-07-29T17:16:51;4.30;;;3.90;;
74217;SDS011;62579;47.288;18.646;2022-07-29T17:19:19;7.37;;;3.80;;
74217;SDS011;62579;47.288;18.646;2022-07-29T17:21:45;7.82;;;4.87;;
74217;SDS011;62579;47.288;18.646;2022-07-29T17:24:10;7.28;;;4.85;;
74217;SDS011;62579;47.288;18.646;2022-07-29T17:26:36;6.60;;;3.90;;
74217;SDS011;62579;47.288;18.646;2022-07-29T17:29:03;7.57;;;3.67;;
74217;SDS011;62579;47.288;18.646;2022-07-29T17:31:29;7.53;;;4.17;;
74217;SDS011;62579;47.288;18.646;2022-07-29T17:33:54;8.00;;;3.87;;
74217;SDS011;62579;47.288;18.646;2022-07-29T17:36:19;13.20;;;4.70;;
74217;SDS011;62579;47.288;18.646;2022-07-29T17:38:48;16.20;;;4.60;;
74217;SDS011;62579;47.288;18.646;2022-07-29T17:41:14;26.95;;;5.32;;
74217;SDS011;62579;47.288;18.646;2022-07-29T17:43:39;16.20;;;4.68;;
74217;SDS011;62579;47.288;18.646;2022-07-29T17:46:06;27.40;;;5.18;;
74217;SDS011;62579;47.288;18.646;2022-07-29T17:48:33;19.95;;;5.03;;
74217;SDS011;62579;47.288;18.646;2022-07-29T17:50:59;21.30;;;4.60;;
74217;SDS011;62579;47.288;18.646;2022-07-29T17:53:24;23.33;;;5.13;;
74217;SDS011;62579;47.288;18.646;2022-07-29T17:55:49;26.23;;;5.50;;
74217;SDS011;62579;47.288;18.646;2022-07-29T17:58:15;17.48;;;4.40;;
74217;SDS011;62579;47.288;18.646;2022-07-29T18:00:41;19.05;;;4.90;;
74217;SDS011;62579;47.288;18.646;2022-07-29T18:03:07;22.90;;;4.70;;
74217;SDS011;62579;47.288;18.646;2022-07-29T18:05:32;19.40;;;5.60;;
74217;SDS011;62579;47.288;18.646;2022-07-29T18:07:58;15.07;;;4.50;;
74217;SDS011;62579;47.288;18.646;2022-07-29T18:10:23;15.37;;;4.13;;
74217;SDS011;62579;47.288;18.646;2022-07-29T18:12:49;7.28;;;3.80;;
74217;SDS011;62579;47.288;18.646;2022-07-29T18:15:14;17.77;;;4.03;;
74217;SDS011;62579;47.288;18.646;2022-07-29T18:17:40;8.03;;;4.17;;
74217;SDS011;62579;47.288;18.646;2022-07-29T18:20:05;10.93;;;4.00;;
74217;SDS011;62579;47.288;18.646;2022-07-29T18:22:31;9.55;;;3.72;;
74217;SDS011;62579;47.288;18.646;2022-07-29T18:24:57;11.52;;;3.58;;
74217;SDS011;62579;47.288;18.646;2022-07-29T18:27:22;8.60;;;3.73;;
74217;SDS011;62579;47.288;18.646;2022-07-29T18:29:50;10.82;;;3.40;;
74217;SDS011;62579;47.288;18.646;2022-07-29T18:32:17;9.27;;;3.50;;
74217;SDS011;62579;47.288;18.646;2022-07-29T18:34:42;10.48;;;3.67;;
74217;SDS011;62579;47.288;18.646;2022-07-29T18:37:08;5.70;;;3.60;;
74217;SDS011;62579;47.288;18.646;2022-07-29T18:39:33;7.53;;;3.83;;
74217;SDS011;62579;47.288;18.646;2022-07-29T18:41:59;6.17;;;3.77;;
74217;SDS011;62579;47.288;18.646;2022-07-29T18:44:24;4.07;;;3.67;;
74217;SDS011;62579;47.288;18.646;2022-07-29T18:46:50;9.20;;;3.80;;
74217;SDS011;62579;47.288;18.646;2022-07-29T18:49:16;8.25;;;3.80;;
74217;SDS011;62579;47.288;18.646;2022-07-29T18:51:41;4.10;;;3.60;;
74217;SDS011;62579;47.288;18.646;2022-07-29T20:02:40;5.75;;;3.78;;
74217;SDS011;62579;47.288;18.646;2022-07-29T20:05:07;4.03;;;3.33;;
74217;SDS011;62579;47.288;18.646;2022-07-29T20:07:33;4.70;;;3.17;;
74217;SDS011;62579;47.288;18.646;2022-07-29T20:09:59;4.90;;;3.37;;
74217;SDS011;62579;47.288;18.646;2022-07-29T20:12:24;4.50;;;3.57;;
74217;SDS011;62579;47.288;18.646;2022-07-29T20:14:50;7.90;;;3.37;;